Time;durP1;ratioP1;P1;durP2;ratioP2;P2;SDS_P1;SDS_P2;PMS_P1;PMS_P2;Temp;Humidity;BMP_temperature;BMP_pressure;BME280_temperature;BME280_humidity;BME280_pressure;Samples;Min_cycle;Max_cycle;Signal;HPM_P1;HPM_P2
2021/01/27 00:00:33;;;;;;;13.48;9.10;;;;;;;1.30;64.09;98599.05;1763215;81;21162;-44
2021/01/27 00:03:01;;;;;;;12.88;8.75;;;;;;;1.33;63.68;98602.17;1794717;80;21153;-44
2021/01/27 00:05:39;;;;;;;10.43;6.70;;;;;;;1.36;63.76;98609.55;1795055;80;21197;-44
2021/01/27 00:08:07;;;;;;;13.80;9.10;;;;;;;1.34;63.57;98605.87;1794628;80;21169;-44
2021/01/27 00:10:35;;;;;;;13.08;8.70;;;;;;;1.30;63.68;98603.06;1794707;80;21137;-44
2021/01/27 00:13:06;;;;;;;12.35;8.33;;;;;;;1.30;63.37;98601.73;1794534;80;21022;-44
2021/01/27 00:15:36;;;;;;;12.93;8.93;;;;;;;1.31;63.68;98603.27;1789564;80;21146;-44
2021/01/27 00:18:07;;;;;;;12.53;8.90;;;;;;;1.33;63.65;98599.51;1794772;80;21165;-44
2021/01/27 00:20:35;;;;;;;12.37;8.50;;;;;;;1.26;63.91;98602.09;1794623;80;21216;-44
2021/01/27 00:23:03;;;;;;;14.63;9.78;;;;;;;1.29;63.86;98596.69;1794560;80;21146;-44
2021/01/27 00:25:33;;;;;;;12.90;9.45;;;;;;;1.29;63.94;98591.35;1794623;80;21027;-44
2021/01/27 00:28:01;;;;;;;14.50;8.23;;;;;;;1.30;63.85;98589.71;1794806;80;21134;-44
2021/01/27 00:30:36;;;;;;;13.18;8.90;;;;;;;1.32;63.46;98589.38;1787671;80;22131;-44
2021/01/27 00:33:05;;;;;;;11.45;8.68;;;;;;;1.32;63.34;98592.05;1772547;81;21166;-44
2021/01/27 00:35:39;;;;;;;14.73;8.50;;;;;;;1.33;63.13;98591.50;1819118;78;21110;-44
2021/01/27 00:38:15;;;;;;;11.45;7.95;;;;;;;1.34;62.99;98583.72;1819142;78;21548;-44
2021/01/27 00:40:43;;;;;;;14.75;8.70;;;;;;;1.33;62.93;98572.80;1819364;78;21126;-44
2021/01/27 00:43:12;;;;;;;10.88;8.23;;;;;;;1.26;63.15;98582.08;1819356;78;22273;-44
2021/01/27 00:45:40;;;;;;;14.05;9.15;;;;;;;1.26;63.32;98577.28;1819293;78;21126;-44
2021/01/27 00:48:10;;;;;;;12.33;9.13;;;;;;;1.28;63.13;98574.55;1819672;78;21595;-44
2021/01/27 00:50:38;;;;;;;13.35;8.48;;;;;;;1.27;63.19;98576.97;1819282;78;21110;-44
2021/01/27 00:53:06;;;;;;;11.85;8.33;;;;;;;1.28;63.40;98577.22;1819217;78;21181;-44
2021/01/27 00:55:36;;;;;;;;;;;;;;;1.27;63.27;98574.30;1821537;78;21205;-44
2021/01/27 00:58:04;;;;;;;12.68;8.78;;;;;;;1.29;63.35;98572.12;1819242;78;20545;-44
2021/01/27 01:00:35;;;;;;;14.00;7.92;;;;;;;1.19;63.40;98571.66;1819264;78;21121;-44
2021/01/27 01:03:06;;;;;;;13.03;9.50;;;;;;;1.20;63.48;98570.02;1819365;78;21126;-44
2021/01/27 01:05:41;;;;;;;14.83;8.93;;;;;;;1.23;63.58;98569.38;1819506;78;21180;-44
2021/01/27 01:08:12;;;;;;;14.43;8.38;;;;;;;1.26;63.53;98564.72;1819241;78;21206;-44
2021/01/27 01:10:43;;;;;;;12.03;7.65;;;;;;;1.28;63.58;98559.86;1819293;78;21107;-44
2021/01/27 01:13:16;;;;;;;11.38;8.28;;;;;;;1.29;63.60;98562.77;1819161;78;21143;-44
2021/01/27 01:15:44;;;;;;;11.60;7.90;;;;;;;1.30;63.56;98564.34;1819346;78;20988;-44
2021/01/27 01:18:12;;;;;;;13.53;9.05;;;;;;;1.29;63.75;98567.32;1819241;78;21120;-44
2021/01/27 01:20:41;;;;;;;13.22;8.90;;;;;;;1.28;63.57;98563.86;1817464;78;21259;-44
2021/01/27 01:23:10;;;;;;;14.95;8.88;;;;;;;1.28;63.95;98553.19;1815965;78;21166;-44
2021/01/27 01:25:38;;;;;;;14.63;9.28;;;;;;;1.26;64.03;98546.03;1816078;78;21134;-44
2021/01/27 01:28:07;;;;;;;15.10;10.03;;;;;;;1.27;63.95;98550.27;1816006;79;21075;-44
2021/01/27 01:30:41;;;;;;;15.28;9.80;;;;;;;1.24;64.11;98557.59;1793106;79;21154;-44
2021/01/27 01:33:20;;;;;;;14.03;9.68;;;;;;;1.25;64.11;98557.84;1788940;80;21146;-44
2021/01/27 01:35:49;;;;;;;13.62;8.08;;;;;;;1.20;64.20;98547.88;1788852;80;21182;-44
2021/01/27 01:38:17;;;;;;;12.37;8.87;;;;;;;1.22;64.40;98550.98;1789126;80;21166;-44
2021/01/27 01:40:49;;;;;;;15.40;9.83;;;;;;;1.21;64.22;98553.45;1789022;80;21027;-44
2021/01/27 01:43:33;;;;;;;13.08;9.88;;;;;;;1.21;64.30;98548.87;1788861;80;21154;-44
2021/01/27 01:46:18;;;;;;;15.03;9.15;;;;;;;1.20;64.50;98537.19;1788952;80;21145;-44
2021/01/27 01:48:59;;;;;;;15.85;9.93;;;;;;;1.19;64.49;98535.62;1788860;80;21596;-44
2021/01/27 01:51:40;;;;;;;13.35;8.93;;;;;;;1.21;64.72;98533.42;1788996;80;21185;-44
2021/01/27 01:54:34;;;;;;;15.13;10.08;;;;;;;1.21;64.89;98541.44;1788913;80;21054;-44
2021/01/27 01:57:09;;;;;;;14.47;9.70;;;;;;;1.20;64.89;98533.97;1782522;80;21142;-44
2021/01/27 01:59:38;;;;;;;14.98;9.18;;;;;;;1.21;64.83;98530.75;1747062;81;21206;-44
2021/01/27 02:02:08;;;;;;;10.68;8.03;;;;;;;1.20;64.92;98521.17;1777811;80;21147;-44
2021/01/27 02:04:42;;;;;;;13.62;9.20;;;;;;;1.15;64.99;98514.67;1747208;82;21178;-44
2021/01/27 02:07:10;;;;;;;15.23;9.35;;;;;;;1.12;65.08;98502.72;1777879;80;21210;-44
2021/01/27 02:09:39;;;;;;;14.63;9.25;;;;;;;1.10;65.24;98507.61;1777760;80;21166;-44
2021/01/27 02:12:22;;;;;;;12.68;9.43;;;;;;;1.08;65.32;98510.35;1747070;82;21648;-44
2021/01/27 02:15:07;;;;;;;13.18;9.40;;;;;;;1.07;65.30;98518.91;1777850;80;21016;-43
2021/01/27 02:17:50;;;;;;;14.50;9.28;;;;;;;1.07;65.35;98526.12;1747015;82;21147;-44
2021/01/27 02:20:55;;;;;;;12.37;9.48;;;;;;;1.08;65.34;98520.48;1767772;80;21197;-44
2021/01/27 02:24:02;;;;;;;14.90;10.10;;;;;;;1.07;65.36;98530.13;1763320;81;21126;-44
2021/01/27 02:26:39;;;;;;;14.07;9.20;;;;;;;1.07;65.56;98526.91;1813781;79;21373;-44
2021/01/27 02:29:30;;;;;;;14.68;10.03;;;;;;;1.01;65.93;98526.87;1805615;79;21201;-44
2021/01/27 02:32:52;;;;;;;13.90;9.43;;;;;;;1.06;65.87;98521.37;1831454;78;22543;-43
2021/01/27 02:36:11;;;;;;;15.10;9.98;;;;;;;1.06;65.87;98521.37;1735340;82;21637;-43
2021/01/27 02:38:53;;;;;;;12.93;8.87;;;;;;;1.04;66.04;98515.55;1742399;82;21374;-43
2021/01/27 02:41:50;;;;;;;13.75;9.35;;;;;;;1.03;66.02;98521.98;1742205;82;21678;-43
2021/01/27 02:44:21;;;;;;;11.93;8.98;;;;;;;1.02;66.02;98528.41;1735346;82;21736;-43
2021/01/27 02:46:51;;;;;;;15.72;9.85;;;;;;;1.01;66.01;98523.41;1742179;82;21167;-43
2021/01/27 02:49:34;;;;;;;14.20;9.33;;;;;;;1.02;66.05;98524.95;1735350;82;21053;-43
2021/01/27 02:52:15;;;;;;;16.77;10.38;;;;;;;1.00;66.12;98529.84;1742097;82;21400;-43
2021/01/27 02:54:53;;;;;;;11.80;7.87;;;;;;;1.01;66.18;98532.20;1735263;81;21028;-43
2021/01/27 02:57:50;;;;;;;15.80;9.93;;;;;;;1.01;66.24;98530.08;1742123;82;21073;-43
2021/01/27 03:00:31;;;;;;;15.08;10.23;;;;;;;1.01;66.24;98530.87;1741990;82;21170;-44
2021/01/27 03:03:23;;;;;;;14.75;9.80;;;;;;;0.99;66.42;98521.59;1735369;81;21151;-43
2021/01/27 03:05:58;;;;;;;13.68;9.33;;;;;;;1.01;66.30;98513.52;1712988;82;21717;-44
2021/01/27 03:08:30;;;;;;;13.75;8.60;;;;;;;1.02;66.35;98518.28;1742017;82;21214;-44
2021/01/27 03:11:28;;;;;;;15.25;10.63;;;;;;;1.01;66.32;98508.73;1735280;82;21911;-44
2021/01/27 03:13:57;;;;;;;14.18;9.40;;;;;;;1.00;66.36;98514.62;1742168;82;21658;-44
2021/01/27 03:16:47;;;;;;;14.20;9.93;;;;;;;0.96;66.51;98515.02;1735249;82;21143;-44
2021/01/27 03:19:33;;;;;;;13.50;8.33;;;;;;;0.94;66.76;98509.75;1742297;82;21614;-44
2021/01/27 03:22:20;;;;;;;15.13;10.03;;;;;;;0.94;66.87;98507.87;1735140;82;21009;-44
2021/01/27 03:24:56;;;;;;;14.93;10.18;;;;;;;0.90;67.10;98500.27;1742115;82;21163;-44
2021/01/27 03:27:28;;;;;;;16.05;9.95;;;;;;;0.91;67.17;98489.84;1735210;81;21112;-44
2021/01/27 03:29:58;;;;;;;14.70;9.80;;;;;;;0.97;67.14;98484.55;1725896;82;21139;-44
2021/01/27 03:32:35;;;;;;;18.42;10.80;;;;;;;0.96;67.19;98488.34;1714094;83;21264;-44
2021/01/27 03:35:30;;;;;;;15.10;10.08;;;;;;;0.96;67.01;98489.67;1713843;83;21178;-44
2021/01/27 03:38:12;;;;;;;18.45;11.18;;;;;;;0.91;67.03;98495.72;1690249;83;21186;-44
2021/01/27 03:40:43;;;;;;;17.23;10.60;;;;;;;0.84;67.13;98494.86;1707017;83;21169;-44
2021/01/27 03:43:33;;;;;;;14.53;9.35;;;;;;;0.81;67.28;98497.63;1685880;83;21182;-44
2021/01/27 03:46:31;;;;;;;16.32;10.75;;;;;;;0.79;67.42;98505.69;1713400;83;21213;-44
2021/01/27 03:49:06;;;;;;;18.48;11.38;;;;;;;0.73;67.70;98513.06;1713365;83;21218;-44
2021/01/27 03:51:38;;;;;;;17.50;11.12;;;;;;;0.72;67.96;98512.07;1685416;83;21154;-44
2021/01/27 03:54:16;;;;;;;20.12;11.93;;;;;;;0.72;68.08;98502.73;1713476;83;21008;-44
2021/01/27 03:57:04;;;;;;;18.75;11.45;;;;;;;0.75;67.99;98510.09;1713409;83;21151;-44
2021/01/27 03:59:32;;;;;;;16.05;10.65;;;;;;;0.80;67.89;98508.59;1713549;83;21648;-44
2021/01/27 04:02:01;;;;;;;16.65;10.88;;;;;;;0.77;67.96;98510.58;1713565;83;21191;-44
2021/01/27 04:04:29;;;;;;;16.10;11.05;;;;;;;0.76;67.89;98510.34;1713405;83;21596;-44
2021/01/27 04:06:58;;;;;;;14.85;10.25;;;;;;;0.73;67.93;98509.61;1713465;83;21156;-44
2021/01/27 04:09:26;;;;;;;16.07;11.05;;;;;;;0.70;68.07;98504.92;1713516;83;21158;-44
2021/01/27 04:11:54;;;;;;;15.80;10.60;;;;;;;0.68;68.22;98507.10;1713463;83;22021;-43
2021/01/27 04:14:23;;;;;;;14.50;9.85;;;;;;;0.68;68.30;98508.44;1713352;83;21056;-44
2021/01/27 04:16:51;;;;;;;18.60;10.35;;;;;;;0.67;68.39;98502.89;1713375;83;21027;-44
2021/01/27 04:19:19;;;;;;;18.60;12.33;;;;;;;0.64;68.50;98500.84;1713465;83;21589;-44
2021/01/27 04:21:48;;;;;;;16.52;10.78;;;;;;;0.60;68.73;98503.91;1713461;83;21214;-44
2021/01/27 04:24:16;;;;;;;16.27;10.63;;;;;;;0.60;68.74;98505.23;1713378;83;21437;-44
2021/01/27 04:26:45;;;;;;;16.67;11.53;;;;;;;0.59;68.79;98507.66;1713417;83;21048;-44
2021/01/27 04:29:13;;;;;;;18.70;12.05;;;;;;;0.58;68.81;98506.87;1713415;82;21139;-44
2021/01/27 04:31:41;;;;;;;16.42;11.28;;;;;;;0.60;68.78;98514.57;1710610;83;21131;-44
2021/01/27 04:36:41;;;;;;;18.12;12.00;;;;;;;0.64;68.88;98511.50;1841054;78;22314;-43
2021/01/27 04:39:10;;;;;;;17.48;11.30;;;;;;;0.53;69.16;98512.39;1816174;79;21019;-43
2021/01/27 04:41:40;;;;;;;15.88;11.08;;;;;;;0.61;69.10;98509.48;1816140;79;21312;-43
2021/01/27 04:44:08;;;;;;;;;;;;;;;0.64;69.05;98511.50;1818898;78;21341;-43
2021/01/27 04:46:38;;;;;;;14.78;10.15;;;;;;;0.66;68.91;98512.77;1816181;79;20190;-43
2021/01/27 04:49:28;;;;;;;17.57;11.78;;;;;;;0.61;69.10;98513.48;1816404;79;21716;-43
2021/01/27 04:52:32;;;;;;;17.82;12.13;;;;;;;0.61;69.18;98511.59;1816460;79;21226;-43
2021/01/27 04:55:21;;;;;;;18.67;12.05;;;;;;;0.58;69.33;98516.20;1816230;79;21429;-43
2021/01/27 04:58:21;;;;;;;19.07;11.68;;;;;;;0.62;69.53;98517.72;1854959;76;22743;-43
2021/01/27 05:01:32;;;;;;;17.67;11.10;;;;;;;0.62;69.52;98529.72;1826066;78;20907;-43
2021/01/27 05:04:30;;;;;;;20.05;12.55;;;;;;;0.62;69.58;98516.39;1826139;78;21131;-43
2021/01/27 05:07:07;;;;;;;18.80;12.33;;;;;;;0.62;69.52;98521.72;1826062;78;22008;-43
2021/01/27 05:09:59;;;;;;;17.10;11.63;;;;;;;0.60;69.56;98521.23;1825433;78;20998;-43
2021/01/27 05:12:41;;;;;;;16.45;11.65;;;;;;;0.56;69.57;98518.97;1826185;78;21006;-43
2021/01/27 05:15:17;;;;;;;17.52;11.65;;;;;;;0.54;69.81;98513.15;1809086;77;22771;-43
2021/01/27 05:17:46;;;;;;;16.77;11.53;;;;;;;0.48;69.84;98515.22;1784026;80;20993;-43
2021/01/27 05:20:16;;;;;;;;;;;;;;;0.51;69.85;98517.79;1751949;82;21195;-43
2021/01/27 05:22:44;;;;;;;16.40;10.90;;;;;;;0.49;69.91;98519.97;1749248;82;20167;-43
2021/01/27 05:25:23;;;;;;;18.87;12.55;;;;;;;0.41;70.12;98519.67;1749175;82;21039;-43
2021/01/27 05:27:52;;;;;;;17.35;11.65;;;;;;;0.41;70.19;98519.67;1699853;83;21213;-43
2021/01/27 05:30:29;;;;;;;19.87;12.80;;;;;;;0.47;70.16;98515.52;1772451;80;21067;-43
2021/01/27 05:32:57;;;;;;;19.73;12.50;;;;;;;0.50;70.14;98521.55;1779751;80;21221;-42
2021/01/27 05:35:36;;;;;;;18.62;11.80;;;;;;;0.56;70.02;98521.09;1780312;80;21549;-43
2021/01/27 05:38:31;;;;;;;18.07;11.63;;;;;;;0.62;69.87;98524.39;1746540;82;21582;-43
2021/01/27 05:41:10;;;;;;;16.30;10.23;;;;;;;0.60;69.84;98525.23;1749282;82;21199;-43
2021/01/27 05:43:38;;;;;;;17.75;12.20;;;;;;;0.57;69.91;98537.87;1733573;82;21125;-43
2021/01/27 05:46:14;;;;;;;15.23;10.28;;;;;;;0.55;70.03;98537.39;1744394;81;21224;-43
2021/01/27 05:48:49;;;;;;;17.73;12.07;;;;;;;0.54;70.11;98535.82;1744375;81;21006;-45
2021/01/27 05:51:29;;;;;;;15.35;11.28;;;;;;;0.55;70.18;98534.73;1744371;82;21220;-45
2021/01/27 05:54:00;;;;;;;20.65;12.35;;;;;;;0.60;70.20;98536.70;1744431;82;21188;-44
2021/01/27 05:56:28;;;;;;;20.10;12.73;;;;;;;0.60;70.30;98545.24;1744693;82;21128;-45
2021/01/27 05:59:01;;;;;;;17.75;12.05;;;;;;;0.65;70.27;98549.09;1744739;81;21219;-44
2021/01/27 06:01:40;;;;;;;21.15;12.60;;;;;;;0.66;70.38;98549.33;1744415;81;21192;-45
2021/01/27 06:04:19;;;;;;;21.65;13.28;;;;;;;0.69;70.39;98546.02;1744687;81;21885;-45
2021/01/27 06:06:56;;;;;;;20.55;13.10;;;;;;;0.72;70.40;98549.41;1744464;82;21144;-45
2021/01/27 06:09:42;;;;;;;19.10;13.35;;;;;;;0.71;70.43;98553.96;1739369;80;21135;-44
2021/01/27 06:12:25;;;;;;;22.05;13.88;;;;;;;0.72;70.57;98552.08;1740664;82;21359;-44
2021/01/27 06:15:10;;;;;;;20.37;13.72;;;;;;;0.68;70.62;98561.78;1740763;81;21135;-44
2021/01/27 06:17:48;;;;;;;22.40;14.78;;;;;;;0.65;70.88;98574.42;1741077;81;21600;-44
2021/01/27 06:20:33;;;;;;;20.00;13.08;;;;;;;0.62;70.90;98571.06;1741003;81;21174;-45
2021/01/27 06:23:29;;;;;;;19.05;12.88;;;;;;;0.63;70.91;98576.64;1741032;82;21322;-45
2021/01/27 06:26:34;;;;;;;22.07;14.18;;;;;;;0.63;70.90;98573.97;1740654;82;21178;-44
2021/01/27 06:29:26;;;;;;;20.27;14.03;;;;;;;0.60;70.94;98581.25;1711366;80;22012;-44
2021/01/27 06:32:26;;;;;;;25.75;15.75;;;;;;;0.59;71.13;98583.67;1779570;80;21849;-44
2021/01/27 06:35:11;;;;;;;22.22;13.98;;;;;;;0.66;71.04;98582.67;1779489;80;21182;-45
2021/01/27 06:37:57;;;;;;;20.97;14.90;;;;;;;0.77;70.88;98571.94;1779519;80;21166;-44
2021/01/27 06:40:38;;;;;;;23.22;14.78;;;;;;;0.89;70.66;98569.41;1835903;78;22789;-44
2021/01/27 06:43:41;;;;;;;22.05;14.03;;;;;;;0.95;70.53;98568.16;1808275;79;20976;-43
2021/01/27 06:46:40;;;;;;;22.55;14.83;;;;;;;1.01;70.34;98568.23;1808253;79;21242;-43
2021/01/27 06:49:24;;;;;;;26.40;15.70;;;;;;;1.07;70.14;98566.95;1808331;79;21003;-44
2021/01/27 06:52:25;;;;;;;24.63;15.15;;;;;;;1.10;70.07;98565.00;1776678;79;20964;-44
2021/01/27 06:55:30;;;;;;;21.17;14.15;;;;;;;1.11;69.93;98563.13;1808133;79;21304;-43
2021/01/27 06:58:28;;;;;;;24.87;14.58;;;;;;;1.08;69.95;98571.20;1808335;79;21157;-43
2021/01/27 07:01:23;;;;;;;23.70;16.42;;;;;;;1.05;70.06;98573.17;1807932;79;21248;-44
2021/01/27 07:04:39;;;;;;;23.32;16.73;;;;;;;1.04;70.20;98568.14;1808348;79;21509;-43
2021/01/27 07:07:38;;;;;;;29.77;19.60;;;;;;;1.05;70.24;98567.84;1808180;79;20984;-44
2021/01/27 07:10:33;;;;;;;28.98;20.12;;;;;;;1.07;70.08;98574.95;1808268;79;21016;-44
2021/01/27 07:13:23;;;;;;;31.30;19.75;;;;;;;1.07;70.06;98575.50;1808136;79;21115;-44
2021/01/27 07:16:36;;;;;;;31.23;20.20;;;;;;;1.06;70.02;98576.08;1808158;79;21328;-44
2021/01/27 07:19:22;;;;;;;26.48;18.17;;;;;;;1.05;70.31;98577.17;1808109;79;21134;-44
2021/01/27 07:22:11;;;;;;;26.25;19.25;;;;;;;1.08;70.24;98576.53;1808095;79;21004;-44
2021/01/27 07:24:55;;;;;;;26.27;17.80;;;;;;;1.15;70.16;98582.19;1807798;79;21150;-43
2021/01/27 07:27:23;;;;;;;27.52;16.62;;;;;;;1.17;70.33;98584.52;1808201;79;21126;-43
2021/01/27 07:30:11;;;;;;;25.35;16.42;;;;;;;1.25;70.15;98580.53;1790506;79;21177;-44
2021/01/27 07:32:55;;;;;;;27.02;17.00;;;;;;;1.30;70.04;98576.91;1749786;80;21019;-44
2021/01/27 07:35:35;;;;;;;27.22;17.05;;;;;;;1.35;69.90;98572.73;1776187;80;20953;-44
2021/01/27 07:38:11;;;;;;;22.77;15.83;;;;;;;1.39;69.57;98572.33;1776250;80;21155;-44
2021/01/27 07:40:57;;;;;;;24.37;19.27;;;;;;;1.47;69.72;98564.05;1820219;78;38686;-43
2021/01/27 07:43:43;;;;;;;22.37;15.93;;;;;;;1.81;68.58;98574.63;1808128;79;21003;-43
2021/01/27 07:46:13;;;;;;;25.90;17.45;;;;;;;1.99;67.49;98570.77;1808086;79;21197;-43
2021/01/27 07:48:55;;;;;;;22.22;14.28;;;;;;;1.83;67.90;98575.09;1808343;79;21582;-43
2021/01/27 07:51:38;;;;;;;23.15;16.23;;;;;;;1.79;67.74;98574.17;1808158;79;21608;-42
2021/01/27 07:54:29;;;;;;;23.52;15.55;;;;;;;1.71;68.00;98566.41;1808175;79;20968;-43
2021/01/27 07:57:23;;;;;;;25.75;16.60;;;;;;;1.70;68.10;98572.06;1808234;79;20992;-43
2021/01/27 08:00:00;;;;;;;29.02;17.87;;;;;;;1.69;68.27;98575.86;1808236;79;22151;-43
2021/01/27 08:02:34;;;;;;;24.30;16.60;;;;;;;1.74;67.97;98573.02;1775357;79;21008;-43
2021/01/27 08:05:08;;;;;;;27.82;17.42;;;;;;;1.75;67.97;98569.22;1808133;79;21040;-43
2021/01/27 08:07:44;;;;;;;23.45;17.07;;;;;;;1.82;67.98;98568.73;1808235;79;21000;-43
2021/01/27 08:10:26;;;;;;;24.15;16.27;;;;;;;1.86;67.51;98569.65;1775871;80;21134;-44
2021/01/27 08:13:04;;;;;;;23.92;16.40;;;;;;;1.88;67.18;98564.23;1776309;80;21377;-43
2021/01/27 08:15:44;;;;;;;22.22;15.35;;;;;;;1.82;67.36;98572.73;1776302;80;21596;-43
2021/01/27 08:18:15;;;;;;;22.00;14.18;;;;;;;1.84;67.20;98568.63;1776409;80;21146;-43
2021/01/27 08:20:45;;;;;;;25.68;16.93;;;;;;;1.78;67.06;98562.46;1776187;80;21118;-43
2021/01/27 08:23:33;;;;;;;23.85;14.55;;;;;;;1.77;67.34;98575.03;1776609;80;21628;-43
2021/01/27 08:26:06;;;;;;;25.75;17.00;;;;;;;1.80;67.26;98577.05;1776164;80;21488;-43
2021/01/27 08:28:43;;;;;;;26.80;17.07;;;;;;;1.80;67.10;98581.61;1776235;79;21601;-43
2021/01/27 08:31:18;;;;;;;27.05;17.77;;;;;;;1.79;66.76;98576.84;1776237;80;21027;-43
2021/01/27 08:33:55;;;;;;;26.02;16.87;;;;;;;1.73;66.74;98577.57;1776201;80;21055;-43
2021/01/27 08:36:35;;;;;;;26.12;17.27;;;;;;;1.64;66.94;98564.02;1776447;80;21154;-43
2021/01/27 08:39:11;;;;;;;24.95;16.37;;;;;;;1.74;67.21;98578.36;1737753;82;21087;-43
2021/01/27 08:41:53;;;;;;;24.72;17.12;;;;;;;1.82;67.14;98584.77;1708552;84;21032;-43
2021/01/27 08:44:27;;;;;;;24.23;16.55;;;;;;;1.89;66.73;98581.81;1708728;84;22213;-43
2021/01/27 08:47:10;;;;;;;25.52;17.25;;;;;;;1.94;66.58;98575.50;1708643;83;21119;-43
2021/01/27 08:49:57;;;;;;;25.82;16.75;;;;;;;2.01;66.26;98580.59;1707919;83;21569;-43
2021/01/27 08:52:34;;;;;;;27.58;17.98;;;;;;;2.03;66.27;98578.36;1728520;83;22357;-43
2021/01/27 08:55:23;;;;;;;24.47;16.27;;;;;;;2.01;65.59;98575.80;1728265;83;21186;-43
2021/01/27 08:58:35;;;;;;;26.80;16.10;;;;;;;2.00;65.80;98572.88;1708196;84;26578;-43
2021/01/27 09:01:27;;;;;;;25.88;17.23;;;;;;;1.99;65.57;98575.32;1728380;83;21165;-43
2021/01/27 09:03:59;;;;;;;24.72;16.75;;;;;;;1.96;65.95;98583.45;1707450;84;21139;-43
2021/01/27 09:06:41;;;;;;;24.30;16.02;;;;;;;1.97;65.54;98580.22;1765162;81;22369;-43
2021/01/27 09:09:17;;;;;;;24.18;15.95;;;;;;;1.96;65.67;98581.32;1728088;82;21135;-43
2021/01/27 09:11:45;;;;;;;20.77;13.13;;;;;;;2.06;65.91;98583.09;1694984;84;21605;-43
2021/01/27 09:14:15;;;;;;;25.05;16.25;;;;;;;2.18;65.83;98572.47;1764938;81;21226;-43
2021/01/27 09:16:44;;;;;;;26.82;17.10;;;;;;;2.31;65.43;98568.56;1728415;82;21110;-43
2021/01/27 09:19:16;;;;;;;;;;;;;;;2.40;64.90;98566.06;1710644;84;21558;-44
2021/01/27 09:22:02;;;;;;;26.10;17.20;;;;;;;2.49;64.50;98564.66;1708164;84;20234;-43
2021/01/27 09:24:46;;;;;;;24.52;16.02;;;;;;;2.46;64.60;98567.45;1728308;83;21158;-43
2021/01/27 09:27:28;;;;;;;23.90;15.88;;;;;;;2.59;64.12;98561.05;1872649;76;23181;-43
2021/01/27 09:30:09;;;;;;;22.40;14.58;;;;;;;2.59;63.73;98573.64;1825947;77;21013;-43
2021/01/27 09:32:40;;;;;;;24.43;15.80;;;;;;;2.61;63.46;98568.77;1826052;78;21375;-43
2021/01/27 09:35:21;;;;;;;21.10;15.03;;;;;;;2.63;63.45;98582.03;1820845;78;21030;-43
2021/01/27 09:37:57;;;;;;;18.57;12.55;;;;;;;2.66;62.81;98568.56;1825976;78;20967;-43
2021/01/27 09:40:41;;;;;;;21.30;15.03;;;;;;;2.61;62.14;98572.19;1826154;78;21595;-43
2021/01/27 09:43:15;;;;;;;22.13;14.53;;;;;;;2.48;62.29;98569.23;1825123;78;20991;-43
2021/01/27 09:45:47;;;;;;;22.48;14.58;;;;;;;2.44;62.83;98556.28;1826107;78;22283;-43
2021/01/27 09:48:19;;;;;;;22.42;14.13;;;;;;;2.47;63.20;98548.92;1825945;78;21042;-43
2021/01/27 09:50:59;;;;;;;20.82;13.62;;;;;;;2.54;63.05;98543.06;1826006;78;21049;-43
2021/01/27 09:53:36;;;;;;;20.62;13.78;;;;;;;2.63;63.00;98544.56;1825995;78;21584;-43
2021/01/27 09:56:05;;;;;;;18.37;13.38;;;;;;;2.69;62.71;98538.47;1826036;78;21173;-43
2021/01/27 09:58:33;;;;;;;19.07;13.05;;;;;;;2.77;62.58;98540.83;1826191;78;21372;-43
2021/01/27 10:01:03;;;;;;;18.52;12.47;;;;;;;2.85;62.41;98542.67;1794330;78;21153;-43
2021/01/27 10:03:37;;;;;;;20.48;12.13;;;;;;;2.97;62.00;98536.02;1826094;78;21540;-44
2021/01/27 10:06:25;;;;;;;15.70;10.60;;;;;;;2.99;61.14;98536.48;1825836;78;21139;-43
2021/01/27 10:08:57;;;;;;;19.92;10.98;;;;;;;2.97;60.37;98539.48;1800460;78;21157;-43
2021/01/27 10:11:35;;;;;;;16.60;11.18;;;;;;;2.92;60.56;98538.89;1826153;78;22261;-44
2021/01/27 10:14:11;;;;;;;16.85;10.13;;;;;;;2.95;60.90;98540.35;1825801;78;21205;-43
2021/01/27 10:16:53;;;;;;;13.32;9.08;;;;;;;3.00;60.55;98544.16;1826077;78;21648;-43
2021/01/27 10:19:42;;;;;;;13.78;9.73;;;;;;;3.00;60.12;98541.48;1826064;78;21189;-43
2021/01/27 10:22:11;;;;;;;13.72;8.73;;;;;;;3.00;60.07;98532.70;1825349;78;21145;-43
2021/01/27 10:24:47;;;;;;;11.10;8.25;;;;;;;2.99;59.34;98536.48;1821182;77;21200;-43
2021/01/27 10:27:35;;;;;;;13.50;8.93;;;;;;;2.96;59.23;98531.22;1859403;77;20987;-43
2021/01/27 10:30:19;;;;;;;11.22;8.30;;;;;;;2.92;59.21;98533.55;1859593;77;21160;-43
2021/01/27 10:32:48;;;;;;;14.55;8.58;;;;;;;2.92;59.27;98530.86;1800266;77;21169;-43
2021/01/27 10:35:31;;;;;;;12.10;8.68;;;;;;;2.89;59.20;98532.31;1859617;77;20964;-44
2021/01/27 10:38:12;;;;;;;10.90;7.87;;;;;;;2.87;59.07;98531.06;1859259;77;22103;-43
2021/01/27 10:40:39;;;;;;;10.40;7.45;;;;;;;2.82;58.98;98527.25;1858170;77;21034;-43
2021/01/27 10:43:15;;;;;;;12.20;8.25;;;;;;;2.83;59.10;98517.56;1858879;77;21633;-43
2021/01/27 10:45:45;;;;;;;12.43;8.53;;;;;;;2.86;59.41;98519.57;1859051;77;21165;-43
2021/01/27 10:48:29;;;;;;;12.43;8.38;;;;;;;2.93;59.46;98521.17;1844601;77;21158;-43
2021/01/27 10:51:06;;;;;;;13.15;7.45;;;;;;;3.00;59.09;98517.97;1825542;78;22141;-43
2021/01/27 10:53:41;;;;;;;12.25;8.10;;;;;;;3.03;59.05;98518.09;1825345;78;21169;-43
2021/01/27 10:56:17;;;;;;;12.43;7.12;;;;;;;3.05;58.79;98511.83;1825196;78;21137;-43
2021/01/27 10:58:47;;;;;;;10.05;7.65;;;;;;;3.02;58.48;98509.83;1825286;78;21133;-44
2021/01/27 11:01:15;;;;;;;11.97;8.53;;;;;;;2.93;59.31;98507.00;1825428;78;21169;-43
2021/01/27 11:03:44;;;;;;;8.15;6.25;;;;;;;2.93;59.31;98507.00;1825654;78;22275;-44
2021/01/27 11:06:13;;;;;;;13.32;8.25;;;;;;;2.89;58.97;98508.78;1825221;78;21026;-43
2021/01/27 11:08:42;;;;;;;13.35;9.38;;;;;;;2.86;58.97;98506.19;1825318;78;20995;-43
2021/01/27 11:11:11;;;;;;;14.27;9.67;;;;;;;2.86;59.13;98508.08;1825480;78;21038;-43
2021/01/27 11:13:41;;;;;;;14.90;9.17;;;;;;;2.85;59.30;98503.31;1825719;78;21362;-44
2021/01/27 11:16:15;;;;;;;13.95;9.25;;;;;;;2.85;59.41;98504.65;1825229;78;21183;-44
2021/01/27 11:18:44;;;;;;;13.78;9.83;;;;;;;2.90;59.41;98503.66;1824916;78;21078;-43
2021/01/27 11:21:12;;;;;;;15.63;10.43;;;;;;;2.89;59.22;98504.21;1825322;78;21129;-43
2021/01/27 11:23:41;;;;;;;16.42;10.95;;;;;;;2.89;59.32;98498.86;1825308;78;21209;-43
2021/01/27 11:26:10;;;;;;;14.85;10.70;;;;;;;2.83;59.67;98496.70;1825273;78;21169;-43
2021/01/27 11:28:39;;;;;;;17.45;11.85;;;;;;;2.80;59.94;98496.03;1825373;77;22032;-43
2021/01/27 11:31:12;;;;;;;17.32;12.93;;;;;;;2.80;60.10;98504.06;1825306;77;21549;-44
2021/01/27 11:33:40;;;;;;;23.55;12.78;;;;;;;2.74;60.25;98502.14;1825367;78;21167;-43
2021/01/27 11:36:10;;;;;;;19.75;13.35;;;;;;;2.68;60.43;98504.78;1825269;78;21352;-43
2021/01/27 11:38:39;;;;;;;19.62;13.28;;;;;;;2.66;60.65;98500.33;1825312;78;20995;-43
2021/01/27 11:41:07;;;;;;;21.02;13.85;;;;;;;2.62;60.52;98492.16;1825261;78;21362;-43
2021/01/27 11:43:41;;;;;;;22.48;14.03;;;;;;;2.59;61.12;98493.38;1825358;78;21484;-43
2021/01/27 11:46:12;;;;;;;19.80;13.38;;;;;;;2.66;61.48;98484.27;1825289;78;21556;-43
2021/01/27 11:48:43;;;;;;;18.82;12.82;;;;;;;2.72;61.44;98479.48;1825403;78;22139;-43
2021/01/27 11:51:16;;;;;;;18.40;13.18;;;;;;;2.78;61.45;98484.31;1825957;75;21121;-43
2021/01/27 11:53:44;;;;;;;18.92;12.98;;;;;;;2.81;61.02;98476.95;1825299;78;21185;-43
2021/01/27 11:56:12;;;;;;;18.20;12.43;;;;;;;2.82;60.54;98485.21;1825301;78;21551;-43
2021/01/27 11:58:40;;;;;;;17.27;11.88;;;;;;;2.81;60.60;98480.20;1825382;78;21026;-43
2021/01/27 12:01:12;;;;;;;17.87;11.12;;;;;;;2.79;60.46;98471.16;1825467;78;21006;-43
2021/01/27 12:03:42;;;;;;;17.48;11.40;;;;;;;2.80;60.29;98474.06;1825328;78;21152;-43
2021/01/27 12:06:10;;;;;;;16.45;11.08;;;;;;;2.80;60.35;98475.41;1825279;78;21196;-44
2021/01/27 12:08:40;;;;;;;;;;;;;;;2.78;60.10;98468.80;1827867;78;21425;-44
2021/01/27 12:11:08;;;;;;;15.63;10.72;;;;;;;2.81;60.20;98473.52;1825241;78;20181;-43
2021/01/27 12:13:40;;;;;;;17.23;11.03;;;;;;;2.76;60.18;98471.80;1825321;78;20987;-43
2021/01/27 12:16:08;;;;;;;17.45;11.28;;;;;;;2.79;60.00;98471.71;1794002;78;21163;-43
2021/01/27 12:18:38;;;;;;;17.23;10.75;;;;;;;2.79;59.91;98474.39;1825357;78;21190;-43
2021/01/27 12:21:08;;;;;;;16.17;11.53;;;;;;;2.76;59.97;98475.06;1826097;75;21131;-44